createdAt,value
2022-11-02T00:01:20.565Z,52.45
2022-11-02T00:03:49.176Z,52.53
2022-11-02T00:06:17.268Z,52.50
2022-11-02T00:08:45.460Z,52.67
2022-11-02T00:11:13.669Z,52.55
2022-11-02T00:13:41.866Z,52.49
2022-11-02T00:16:14.772Z,52.35
2022-11-02T00:18:45.233Z,52.47
2022-11-02T00:21:15.473Z,52.25
2022-11-02T00:23:44.190Z,52.41
2022-11-02T00:26:12.597Z,52.56
2022-11-02T00:28:41.544Z,52.63
2022-11-02T00:31:09.841Z,52.73
2022-11-02T00:33:38.045Z,52.61
2022-11-02T00:36:06.499Z,52.60
2022-11-02T00:38:34.715Z,52.76
2022-11-02T00:41:02.892Z,53.01
2022-11-02T00:43:31.001Z,52.77
2022-11-02T00:45:59.297Z,52.84
2022-11-02T00:48:27.404Z,52.86
2022-11-02T00:50:55.822Z,52.89
2022-11-02T00:53:26.812Z,53.01
2022-11-02T00:55:55.826Z,53.17
2022-11-02T00:58:23.933Z,53.04
2022-11-02T01:00:52.473Z,53.12
2022-11-02T01:03:20.579Z,53.12
2022-11-02T01:05:49.967Z,53.10
2022-11-02T01:08:18.069Z,53.17
2022-11-02T01:10:48.282Z,53.15
2022-11-02T01:13:18.075Z,53.22
2022-11-02T01:15:46.245Z,53.44
2022-11-02T01:18:14.356Z,53.53
2022-11-02T01:20:42.436Z,53.47
2022-11-02T01:23:10.520Z,53.50
2022-11-02T01:25:44.575Z,53.75
2022-11-02T01:28:16.286Z,53.73
2022-11-02T01:30:44.369Z,53.64
2022-11-02T01:33:13.411Z,53.64
2022-11-02T01:35:41.471Z,53.60
2022-11-02T01:38:09.572Z,53.86
2022-11-02T01:40:40.151Z,53.51
2022-11-02T01:43:23.593Z,53.67
2022-11-02T01:46:04.515Z,53.53
2022-11-02T01:48:43.998Z,53.53
2022-11-02T01:51:31.405Z,53.71
2022-11-02T01:54:12.806Z,53.64
2022-11-02T01:56:42.831Z,53.40
2022-11-02T01:59:16.408Z,53.35
2022-11-02T02:01:45.100Z,53.37
2022-11-02T02:04:13.923Z,53.42
2022-11-02T02:06:44.041Z,53.59
2022-11-02T02:09:14.745Z,53.23
2022-11-02T02:11:43.087Z,53.33
2022-11-02T02:14:20.290Z,53.21
2022-11-02T02:17:25.933Z,53.38
2022-11-02T02:20:35.751Z,53.26
2022-11-02T02:23:43.822Z,53.39
2022-11-02T02:26:50.415Z,53.10
2022-11-02T02:29:22.944Z,53.10
2022-11-02T02:32:24.383Z,53.20
2022-11-02T02:35:03.248Z,53.24
2022-11-02T02:37:49.086Z,53.23
2022-11-02T02:40:31.329Z,53.46
2022-11-02T02:43:34.691Z,53.38
2022-11-02T02:46:27.377Z,53.43
2022-11-02T02:48:58.217Z,53.49
2022-11-02T02:51:33.284Z,53.43
2022-11-02T02:54:12.891Z,53.57
2022-11-02T02:56:54.410Z,53.59
2022-11-02T02:59:35.448Z,53.69
2022-11-02T03:02:09.573Z,53.61
2022-11-02T03:04:37.712Z,53.58
2022-11-02T03:07:09.061Z,53.51
2022-11-02T03:09:47.676Z,53.41
2022-11-02T03:13:01.777Z,53.97
2022-11-02T03:15:42.883Z,53.62
2022-11-02T03:18:48.647Z,53.97
2022-11-02T03:21:25.992Z,53.76
2022-11-02T03:24:06.652Z,54.06
2022-11-02T03:26:48.315Z,54.13
2022-11-02T03:29:39.057Z,54.04
2022-11-02T03:32:36.567Z,53.79
2022-11-02T03:35:16.142Z,53.85
2022-11-02T03:38:13.293Z,53.69
2022-11-02T03:40:52.268Z,53.69
2022-11-02T03:43:22.053Z,53.68
2022-11-02T03:45:58.515Z,54.00
2022-11-02T03:48:43.061Z,54.03
2022-11-02T03:51:19.398Z,53.87
2022-11-02T03:54:11.386Z,53.75
2022-11-02T03:56:52.096Z,53.74
2022-11-02T03:59:20.367Z,53.78
2022-11-02T04:01:53.094Z,53.99
2022-11-02T04:04:22.770Z,54.01
2022-11-02T04:06:53.156Z,54.08
2022-11-02T04:09:21.337Z,54.04
2022-11-02T04:12:08.739Z,54.23
2022-11-02T04:14:40.268Z,54.33
2022-11-02T04:17:33.146Z,54.35
2022-11-02T04:20:05.146Z,54.50
2022-11-02T04:23:12.134Z,54.67
2022-11-02T04:25:40.193Z,54.52
2022-11-02T04:28:13.936Z,54.44
2022-11-02T04:30:47.541Z,54.56
2022-11-02T04:33:34.856Z,54.50
2022-11-02T04:36:15.602Z,54.53
2022-11-02T04:38:46.231Z,54.54
2022-11-02T04:41:43.690Z,54.51
2022-11-02T04:44:31.929Z,54.47
2022-11-02T04:47:22.838Z,54.60
2022-11-02T04:49:51.494Z,54.48
2022-11-02T04:52:20.680Z,54.39
2022-11-02T04:54:52.220Z,54.49
2022-11-02T04:57:20.568Z,54.50
2022-11-02T04:59:49.104Z,54.45
2022-11-02T05:02:17.410Z,54.60
2022-11-02T05:04:45.897Z,54.48
2022-11-02T05:07:15.392Z,54.40
2022-11-02T05:09:43.501Z,54.33
2022-11-02T05:12:13.862Z,54.29
2022-11-02T05:14:42.040Z,54.30
2022-11-02T05:17:10.273Z,54.29
2022-11-02T05:19:40.031Z,54.33
2022-11-02T05:22:08.232Z,54.42
2022-11-02T05:24:36.535Z,54.35
2022-11-02T05:27:06.293Z,54.33
2022-11-02T05:29:37.258Z,54.36
2022-11-02T05:32:05.697Z,54.33
2022-11-02T05:34:34.761Z,54.21
2022-11-02T05:37:02.970Z,54.12
2022-11-02T05:39:31.024Z,54.09
2022-11-02T05:41:59.850Z,53.82
2022-11-02T05:44:28.508Z,53.85
2022-11-02T05:46:56.623Z,53.97
2022-11-02T05:49:24.794Z,53.79
2022-11-02T05:51:52.904Z,53.68
2022-11-02T05:54:21.583Z,53.44
2022-11-02T05:56:49.664Z,53.50
2022-11-02T05:59:17.724Z,53.38
2022-11-02T06:01:46.100Z,53.24
2022-11-02T06:04:14.294Z,53.13
2022-11-02T06:06:43.933Z,53.00
2022-11-02T06:09:12.244Z,53.00
2022-11-02T06:11:40.441Z,52.92
2022-11-02T06:14:08.523Z,52.89
2022-11-02T06:16:36.583Z,52.84
2022-11-02T06:19:05.080Z,52.98
2022-11-02T06:21:33.107Z,52.86
2022-11-02T06:24:01.341Z,52.98
2022-11-02T06:26:29.389Z,52.73
2022-11-02T06:28:57.504Z,52.89
2022-11-02T06:31:25.581Z,52.69
2022-11-02T06:33:53.662Z,52.33
2022-11-02T06:36:21.721Z,52.83
2022-11-02T06:38:51.276Z,52.68
2022-11-02T06:41:19.325Z,52.65
2022-11-02T06:43:48.636Z,52.57
2022-11-02T06:46:16.690Z,52.65
2022-11-02T06:48:48.133Z,52.87
2022-11-02T06:51:16.453Z,52.95
2022-11-02T06:53:44.679Z,53.11
2022-11-02T06:56:13.099Z,53.24
2022-11-02T06:58:41.207Z,53.21
2022-11-02T07:01:09.619Z,53.61
2022-11-02T07:03:37.706Z,53.43
2022-11-02T07:06:11.125Z,53.53
2022-11-02T07:08:42.668Z,53.51
2022-11-02T07:11:15.513Z,54.01
2022-11-02T07:13:44.220Z,53.74
2022-11-02T07:16:12.520Z,53.94
2022-11-02T07:18:41.922Z,54.01
2022-11-02T07:21:12.052Z,54.14
2022-11-02T07:23:40.372Z,54.57
2022-11-02T07:26:08.565Z,54.58
2022-11-02T07:28:38.456Z,54.54
2022-11-02T07:31:06.689Z,54.05
2022-11-02T07:33:34.735Z,54.49
2022-11-02T07:36:05.589Z,54.67
2022-11-02T07:38:33.687Z,54.21
2022-11-02T07:41:01.748Z,54.23
2022-11-02T07:43:30.695Z,54.12
2022-11-02T07:46:25.388Z,54.08
2022-11-02T07:48:53.493Z,54.06
2022-11-02T07:51:21.790Z,53.88
2022-11-02T07:53:50.352Z,54.09
2022-11-02T07:56:18.466Z,54.16
2022-11-02T07:58:49.158Z,54.08
2022-11-02T08:01:17.383Z,54.20
2022-11-02T08:03:45.471Z,54.08
2022-11-02T08:06:13.525Z,54.21
2022-11-02T08:08:41.757Z,54.16
2022-11-02T08:11:10.291Z,54.05
2022-11-02T08:13:39.241Z,54.17
2022-11-02T08:16:08.288Z,54.35
2022-11-02T08:18:38.256Z,54.35
2022-11-02T08:21:07.087Z,54.35
2022-11-02T08:23:35.634Z,54.26
2022-11-02T08:26:03.825Z,54.50
2022-11-02T08:28:35.867Z,54.31
2022-11-02T08:31:03.977Z,54.31
2022-11-02T08:33:32.057Z,53.68
2022-11-02T08:36:07.435Z,53.26
2022-11-02T08:38:35.637Z,53.80
2022-11-02T08:41:04.810Z,53.50
2022-11-02T08:43:32.904Z,53.31
2022-11-02T08:46:18.749Z,53.75
2022-11-02T08:48:47.565Z,53.25
2022-11-02T08:51:16.243Z,53.09
2022-11-02T08:53:51.232Z,52.80
2022-11-02T08:56:20.054Z,52.90
2022-11-02T08:58:48.257Z,53.04
2022-11-02T09:01:16.407Z,52.65
2022-11-02T09:03:44.576Z,52.39
2022-11-02T09:06:12.623Z,51.98
2022-11-02T09:08:40.946Z,52.94
2022-11-02T09:11:10.352Z,52.69
2022-11-02T09:13:39.096Z,52.57
2022-11-02T09:16:07.742Z,52.97
2022-11-02T09:18:36.996Z,53.20
2022-11-02T09:21:06.040Z,52.76
2022-11-02T09:23:34.146Z,52.76
2022-11-02T09:26:02.322Z,52.90
2022-11-02T09:28:31.247Z,52.55
2022-11-02T09:30:59.473Z,52.17
2022-11-02T09:33:29.863Z,53.37
2022-11-02T09:36:04.163Z,53.00
2022-11-02T09:38:32.365Z,52.87
2022-11-02T09:41:00.326Z,52.34
2022-11-02T09:44:04.380Z,52.37
2022-11-02T09:46:40.591Z,51.92
2022-11-02T09:49:25.746Z,51.46
2022-11-02T09:51:59.230Z,52.04
2022-11-02T09:54:35.472Z,51.25
2022-11-02T09:57:12.228Z,51.41
2022-11-02T09:59:41.837Z,51.28
2022-11-02T10:02:37.467Z,50.90
2022-11-02T10:05:30.450Z,51.24
2022-11-02T10:08:20.278Z,51.36
2022-11-02T10:11:32.777Z,50.89
2022-11-02T10:14:15.931Z,50.75
2022-11-02T10:17:14.658Z,50.07
2022-11-02T10:19:51.217Z,50.33
2022-11-02T10:22:20.140Z,50.24
2022-11-02T10:24:51.369Z,50.19
2022-11-02T10:27:24.724Z,50.57
2022-11-02T10:30:05.146Z,50.67
2022-11-02T10:32:36.756Z,50.49
2022-11-02T10:35:31.615Z,50.86
2022-11-02T10:38:37.705Z,51.14
2022-11-02T10:41:59.785Z,51.05
2022-11-02T10:44:51.122Z,50.93
2022-11-02T10:47:38.550Z,50.79
2022-11-02T10:50:46.951Z,50.65
2022-11-02T10:53:41.793Z,50.60
2022-11-02T10:56:24.284Z,50.48
2022-11-02T10:59:13.724Z,50.50
2022-11-02T11:01:57.109Z,50.48
2022-11-02T11:04:28.463Z,50.09
2022-11-02T11:06:58.488Z,49.84
2022-11-02T11:09:57.750Z,49.82
2022-11-02T11:12:41.095Z,49.98
2022-11-02T11:21:07.116Z,49.69
2022-11-02T11:23:35.222Z,50.19
2022-11-02T11:26:08.706Z,49.86
2022-11-02T11:28:54.523Z,49.46
2022-11-02T11:31:23.327Z,49.94
2022-11-02T11:34:00.375Z,49.87
2022-11-02T11:36:35.091Z,49.81
2022-11-02T11:39:19.641Z,49.36
2022-11-02T11:41:47.972Z,49.20
2022-11-02T11:44:16.501Z,48.33
2022-11-02T11:46:52.860Z,47.77
2022-11-02T11:52:32.872Z,47.19
2022-11-02T11:55:32.410Z,47.06
2022-11-02T11:58:23.863Z,47.33
2022-11-02T12:01:15.396Z,47.31
2022-11-02T12:03:58.302Z,47.16
2022-11-02T12:07:01.189Z,47.20
2022-11-02T12:09:34.285Z,46.23
2022-11-02T12:12:17.390Z,46.59
2022-11-02T12:15:58.889Z,46.03
2022-11-02T12:21:39.486Z,45.92
2022-11-02T12:24:29.978Z,45.26
2022-11-02T12:27:35.891Z,45.42
2022-11-02T12:30:30.973Z,45.53
2022-11-02T12:33:30.345Z,44.75
2022-11-02T12:36:07.936Z,44.65
2022-11-02T12:38:59.872Z,44.63
2022-11-02T12:42:04.803Z,44.54
2022-11-02T12:45:05.044Z,44.17
2022-11-02T12:48:00.872Z,43.17
2022-11-02T12:51:12.365Z,43.80
2022-11-02T12:54:10.235Z,43.64
2022-11-02T12:56:51.513Z,43.18
2022-11-02T12:59:33.013Z,42.94
2022-11-02T13:02:29.796Z,44.00
2022-11-02T13:05:13.486Z,43.43
2022-11-02T13:08:06.032Z,42.95
2022-11-02T13:10:42.864Z,43.68
2022-11-02T13:13:21.865Z,44.12
2022-11-02T13:15:50.934Z,43.94
2022-11-02T13:18:33.512Z,43.72
2022-11-02T13:21:05.118Z,43.40
2022-11-02T13:23:51.636Z,43.56
2022-11-02T13:26:42.305Z,43.70
2022-11-02T13:29:21.524Z,42.30
2022-11-02T13:31:52.633Z,40.93
2022-11-02T13:34:37.513Z,41.72
2022-11-02T13:37:35.834Z,41.72
2022-11-02T13:40:31.253Z,41.74
2022-11-02T13:43:36.564Z,41.59
2022-11-02T13:46:19.740Z,41.77
2022-11-02T13:49:26.702Z,41.61
2022-11-02T13:52:14.910Z,40.86
2022-11-02T13:57:41.626Z,41.66
2022-11-02T14:00:24.920Z,42.01
2022-11-02T14:03:12.378Z,41.79
2022-11-02T14:05:55.399Z,41.74
2022-11-02T14:08:39.445Z,41.64
2022-11-02T14:11:10.423Z,41.40
2022-11-02T14:13:56.605Z,41.10
2022-11-02T14:16:43.233Z,40.95
2022-11-02T14:19:32.374Z,41.25
2022-11-02T14:22:00.478Z,40.73
2022-11-02T14:24:34.438Z,40.72
2022-11-02T14:27:25.081Z,40.91
2022-11-02T14:29:55.660Z,40.21
2022-11-02T14:32:52.690Z,40.52
2022-11-02T14:35:35.293Z,40.40
2022-11-02T14:41:56.408Z,39.39
2022-11-02T14:45:03.391Z,39.92
2022-11-02T14:47:42.150Z,39.72
2022-11-02T14:50:21.734Z,39.54
2022-11-02T14:53:19.695Z,40.06
2022-11-02T14:55:54.870Z,40.14
2022-11-02T14:58:39.611Z,39.59
2022-11-02T15:01:14.917Z,39.70
2022-11-02T15:03:43.574Z,39.61
2022-11-02T15:06:11.559Z,40.16
2022-11-02T15:08:50.779Z,40.12
2022-11-02T15:11:47.206Z,40.24
2022-11-02T15:14:36.385Z,40.19
2022-11-02T15:17:27.266Z,40.27
2022-11-02T15:19:57.997Z,40.70
2022-11-02T15:22:47.102Z,40.64
2022-11-02T15:25:26.485Z,40.57
2022-11-02T15:28:04.609Z,40.88
2022-11-02T15:30:38.229Z,40.84
2022-11-02T15:33:07.789Z,41.12
2022-11-02T15:35:38.592Z,41.46
2022-11-02T15:38:30.480Z,41.73
2022-11-02T15:41:56.479Z,41.71
2022-11-02T15:45:14.240Z,41.77
2022-11-02T15:48:12.537Z,42.28
2022-11-02T15:51:14.126Z,42.50
2022-11-02T15:53:59.824Z,42.88
2022-11-02T15:56:49.506Z,43.12
2022-11-02T15:59:53.950Z,43.20
2022-11-02T16:02:29.739Z,43.42
2022-11-02T16:05:01.754Z,43.91
2022-11-02T16:07:38.317Z,44.05
2022-11-02T16:10:22.311Z,44.19
2022-11-02T16:13:14.483Z,44.29
2022-11-02T16:15:43.794Z,44.67
2022-11-02T16:18:37.056Z,44.57
2022-11-02T16:21:08.153Z,44.93
2022-11-02T16:23:40.413Z,45.12
2022-11-02T16:26:22.205Z,45.04
2022-11-02T16:28:56.765Z,45.22
2022-11-02T16:31:32.247Z,45.13
2022-11-02T16:34:30.844Z,44.94
2022-11-02T16:37:03.743Z,45.08
2022-11-02T16:39:39.737Z,45.43
2022-11-02T16:42:22.073Z,45.67
2022-11-02T16:45:00.959Z,45.63
2022-11-02T16:47:39.995Z,45.90
2022-11-02T16:50:25.947Z,45.81
2022-11-02T16:52:57.853Z,45.75
2022-11-02T16:55:45.844Z,45.87
2022-11-02T16:58:21.367Z,45.97
2022-11-02T17:00:59.519Z,45.95
2022-11-02T17:03:32.917Z,46.28
2022-11-02T17:06:06.038Z,46.25
2022-11-02T17:08:38.176Z,46.19
2022-11-02T17:11:13.698Z,46.63
2022-11-02T17:13:52.103Z,46.52
2022-11-02T17:16:20.928Z,46.62
2022-11-02T17:18:49.012Z,46.77
2022-11-02T17:21:28.860Z,46.82
2022-11-02T17:23:59.197Z,46.84
2022-11-02T17:26:34.880Z,46.76
2022-11-02T17:29:27.436Z,46.72
2022-11-02T17:32:00.761Z,47.02
2022-11-02T17:34:29.321Z,46.91
2022-11-02T17:36:57.429Z,46.99
2022-11-02T17:39:26.472Z,47.08
2022-11-02T17:42:17.477Z,47.45
2022-11-02T17:44:45.778Z,47.33
2022-11-02T17:47:17.837Z,47.47
2022-11-02T17:49:45.896Z,47.42
2022-11-02T17:52:16.624Z,47.64
2022-11-02T17:54:44.945Z,47.66
2022-11-02T17:57:15.440Z,47.90
2022-11-02T17:59:43.506Z,47.56
2022-11-02T18:02:16.181Z,47.61
2022-11-02T18:07:17.386Z,47.36
2022-11-02T18:09:45.436Z,47.44
2022-11-02T18:12:14.625Z,47.56
2022-11-02T18:14:43.044Z,47.53
2022-11-02T18:17:11.278Z,47.39
2022-11-02T18:19:39.326Z,47.38
2022-11-02T18:22:09.474Z,47.51
2022-11-02T18:24:37.535Z,47.50
2022-11-02T18:27:05.615Z,47.59
2022-11-02T18:29:33.815Z,47.60
2022-11-02T18:32:01.929Z,47.69
2022-11-02T18:34:30.005Z,47.67
2022-11-02T18:36:58.096Z,47.51
2022-11-02T18:39:26.145Z,47.35
2022-11-02T18:41:54.351Z,47.33
2022-11-02T18:44:22.558Z,47.35
2022-11-02T18:46:50.759Z,47.32
2022-11-02T18:49:18.836Z,47.41
2022-11-02T18:51:47.878Z,47.55
2022-11-02T18:54:15.960Z,47.36
2022-11-02T18:56:45.148Z,47.55
2022-11-02T18:59:13.228Z,47.70
2022-11-02T19:01:41.446Z,47.55
2022-11-02T19:04:16.037Z,47.63
2022-11-02T19:07:04.693Z,47.66
2022-11-02T19:09:33.653Z,47.65
2022-11-02T19:12:01.602Z,47.73
2022-11-02T19:14:33.860Z,47.65
2022-11-02T19:17:03.039Z,47.79
2022-11-02T19:19:31.493Z,47.67
2022-11-02T19:21:59.577Z,47.71
2022-11-02T19:24:27.751Z,47.82
2022-11-02T19:26:55.980Z,47.89
2022-11-02T19:29:24.033Z,47.74
2022-11-02T19:31:52.145Z,47.66
2022-11-02T19:34:20.203Z,47.59
2022-11-02T19:36:48.305Z,47.54
2022-11-02T19:39:16.364Z,47.56
2022-11-02T19:41:44.568Z,47.69
2022-11-02T19:44:12.662Z,47.69
2022-11-02T19:46:40.759Z,47.80
2022-11-02T19:49:08.817Z,47.99
2022-11-02T19:51:37.016Z,48.13
2022-11-02T19:54:05.482Z,48.12
2022-11-02T19:56:36.900Z,48.31
2022-11-02T19:59:06.327Z,48.34
2022-11-02T20:01:38.302Z,48.48
2022-11-02T20:04:06.453Z,48.50
2022-11-02T20:06:40.782Z,48.55
2022-11-02T20:09:18.452Z,48.54
2022-11-02T20:11:48.397Z,48.70
2022-11-02T20:14:17.968Z,48.87
2022-11-02T20:16:58.353Z,48.86
2022-11-02T20:19:32.844Z,49.00
2022-11-02T20:22:00.926Z,48.92
2022-11-02T20:24:29.008Z,49.03
2022-11-02T20:27:02.787Z,49.19
2022-11-02T20:29:30.814Z,49.00
2022-11-02T20:31:58.923Z,49.12
2022-11-02T20:34:26.978Z,49.27
2022-11-02T20:36:55.083Z,49.33
2022-11-02T20:39:23.142Z,49.31
2022-11-02T20:41:56.296Z,49.45
2022-11-02T20:44:25.464Z,49.58
2022-11-02T20:46:54.371Z,49.55
2022-11-02T20:49:48.784Z,49.59
2022-11-02T20:52:11.656Z,49.44
2022-11-02T20:54:39.958Z,49.59
2022-11-02T20:57:08.765Z,49.62
2022-11-02T20:59:37.205Z,49.62
2022-11-02T21:02:06.187Z,49.58
2022-11-02T21:04:34.703Z,49.48
2022-11-02T21:07:03.250Z,49.43
2022-11-02T21:09:31.333Z,49.31
2022-11-02T21:12:18.514Z,49.35
2022-11-02T21:14:47.449Z,49.21
2022-11-02T21:17:16.377Z,49.12
2022-11-02T21:19:45.046Z,49.35
2022-11-02T21:22:13.869Z,49.32
2022-11-02T21:24:42.386Z,49.22
2022-11-02T21:27:10.592Z,49.39
2022-11-02T21:29:38.673Z,49.42
2022-11-02T21:32:06.783Z,49.26
2022-11-02T21:34:34.984Z,49.33
2022-11-02T21:37:07.120Z,49.25
2022-11-02T21:39:36.404Z,49.22
2022-11-02T21:42:05.228Z,49.30
2022-11-02T21:44:33.290Z,48.95
2022-11-02T21:47:03.195Z,48.94
2022-11-02T21:49:31.260Z,49.09
2022-11-02T21:51:59.976Z,49.17
2022-11-02T21:54:29.098Z,49.34
2022-11-02T21:56:58.378Z,49.72
2022-11-02T21:59:26.461Z,50.12
2022-11-02T22:01:54.680Z,50.49
2022-11-02T22:04:25.744Z,50.63
2022-11-02T22:06:54.934Z,50.79
2022-11-02T22:09:23.743Z,50.85
2022-11-02T22:12:15.227Z,50.90
2022-11-02T22:14:44.858Z,50.84
2022-11-02T22:17:43.271Z,50.79
2022-11-02T22:20:02.152Z,50.79
2022-11-02T22:22:30.231Z,50.92
2022-11-02T22:24:58.288Z,51.01
2022-11-02T22:27:27.843Z,51.06
2022-11-02T22:29:55.890Z,51.16
2022-11-02T22:32:23.973Z,51.25
2022-11-02T22:34:52.058Z,51.26
2022-11-02T22:37:38.498Z,51.52
2022-11-02T22:40:07.062Z,51.40
2022-11-02T22:42:39.661Z,51.53
2022-11-02T22:45:10.808Z,51.63
2022-11-02T22:47:38.801Z,51.54
2022-11-02T22:50:07.557Z,51.67
2022-11-02T22:52:35.663Z,51.74
2022-11-02T22:55:04.316Z,51.73
2022-11-02T22:57:32.421Z,51.59
2022-11-02T23:00:00.482Z,51.55
2022-11-02T23:02:29.432Z,51.43
2022-11-02T23:04:57.509Z,51.60
2022-11-02T23:07:25.701Z,51.51
2022-11-02T23:09:53.770Z,51.37
2022-11-02T23:12:21.856Z,51.45
2022-11-02T23:14:49.937Z,51.41
2022-11-02T23:17:18.017Z,51.33
2022-11-02T23:19:46.098Z,51.43
2022-11-02T23:22:32.568Z,51.54
2022-11-02T23:25:18.413Z,51.56
2022-11-02T23:28:13.106Z,51.67
2022-11-02T23:31:01.112Z,51.92
2022-11-02T23:33:36.485Z,51.85
2022-11-02T23:36:11.590Z,51.84
2022-11-02T23:38:59.711Z,52.08
2022-11-02T23:41:29.716Z,51.94
2022-11-02T23:44:16.488Z,52.17
2022-11-02T23:46:48.656Z,52.11
2022-11-02T23:49:18.531Z,52.08
2022-11-02T23:52:05.094Z,52.09
2022-11-02T23:54:51.916Z,52.21
2022-11-02T23:57:21.081Z,52.37
2022-11-02T23:59:50.098Z,52.38
